sensor_id;sensor_type;location;lat;lon;timestamp;temperature;humidity
5520;DHT22;2782;52.362;10.012;2023-04-03T00:00:00;18.10;75.10
5520;DHT22;2782;52.362;10.012;2023-04-03T00:01:01;18.10;74.90
5520;DHT22;2782;52.362;10.012;2023-04-03T00:02:03;18.20;75.20
5520;DHT22;2782;52.362;10.012;2023-04-03T00:03:04;18.10;75.10
5520;DHT22;2782;52.362;10.012;2023-04-03T00:04:05;18.20;75.40
5520;DHT22;2782;52.362;10.012;2023-04-03T00:05:07;18.10;75.30
5520;DHT22;2782;52.362;10.012;2023-04-03T00:06:09;18.20;75.60
5520;DHT22;2782;52.362;10.012;2023-04-03T00:07:11;18.20;76.00
5520;DHT22;2782;52.362;10.012;2023-04-03T00:08:13;18.20;75.90
5520;DHT22;2782;52.362;10.012;2023-04-03T00:09:13;18.10;75.80
5520;DHT22;2782;52.362;10.012;2023-04-03T00:10:15;18.10;75.80
5520;DHT22;2782;52.362;10.012;2023-04-03T00:11:16;18.10;76.10
5520;DHT22;2782;52.362;10.012;2023-04-03T00:12:18;18.10;76.10
5520;DHT22;2782;52.362;10.012;2023-04-03T00:13:19;18.20;76.60
5520;DHT22;2782;52.362;10.012;2023-04-03T00:14:20;18.10;76.30
5520;DHT22;2782;52.362;10.012;2023-04-03T00:15:23;18.10;76.60
5520;DHT22;2782;52.362;10.012;2023-04-03T00:16:24;18.10;76.80
5520;DHT22;2782;52.362;10.012;2023-04-03T00:17:26;18.10;76.60
5520;DHT22;2782;52.362;10.012;2023-04-03T00:18:26;18.10;76.70
5520;DHT22;2782;52.362;10.012;2023-04-03T00:19:28;18.10;77.00
5520;DHT22;2782;52.362;10.012;2023-04-03T00:20:29;18.10;76.90
5520;DHT22;2782;52.362;10.012;2023-04-03T00:21:31;18.10;76.60
5520;DHT22;2782;52.362;10.012;2023-04-03T00:22:32;18.10;77.00
5520;DHT22;2782;52.362;10.012;2023-04-03T00:23:35;18.10;77.10
5520;DHT22;2782;52.362;10.012;2023-04-03T00:24:35;18.10;77.00
5520;DHT22;2782;52.362;10.012;2023-04-03T00:25:37;18.10;77.30
5520;DHT22;2782;52.362;10.012;2023-04-03T00:26:38;18.10;77.30
5520;DHT22;2782;52.362;10.012;2023-04-03T00:27:40;18.10;77.10
5520;DHT22;2782;52.362;10.012;2023-04-03T00:28:41;18.10;77.50
5520;DHT22;2782;52.362;10.012;2023-04-03T00:29:42;18.10;77.60
5520;DHT22;2782;52.362;10.012;2023-04-03T00:30:45;18.10;77.60
5520;DHT22;2782;52.362;10.012;2023-04-03T00:31:46;18.10;77.40
5520;DHT22;2782;52.362;10.012;2023-04-03T00:32:48;18.00;77.60
5520;DHT22;2782;52.362;10.012;2023-04-03T00:33:50;18.10;77.60
5520;DHT22;2782;52.362;10.012;2023-04-03T00:34:50;18.10;77.70
5520;DHT22;2782;52.362;10.012;2023-04-03T00:35:52;18.00;77.60
5520;DHT22;2782;52.362;10.012;2023-04-03T00:36:53;18.00;77.80
5520;DHT22;2782;52.362;10.012;2023-04-03T00:37:55;18.00;77.70
5520;DHT22;2782;52.362;10.012;2023-04-03T00:38:56;18.00;77.70
5520;DHT22;2782;52.362;10.012;2023-04-03T00:39:58;18.00;77.90
5520;DHT22;2782;52.362;10.012;2023-04-03T00:40:59;18.00;78.00
5520;DHT22;2782;52.362;10.012;2023-04-03T00:42:00;18.00;77.70
5520;DHT22;2782;52.362;10.012;2023-04-03T00:43:01;18.00;78.10
5520;DHT22;2782;52.362;10.012;2023-04-03T00:44:21;18.00;78.10
5520;DHT22;2782;52.362;10.012;2023-04-03T00:45:33;18.00;78.20
5520;DHT22;2782;52.362;10.012;2023-04-03T00:46:36;18.00;78.20
5520;DHT22;2782;52.362;10.012;2023-04-03T00:47:38;18.00;78.30
5520;DHT22;2782;52.362;10.012;2023-04-03T00:48:42;18.00;78.40
5520;DHT22;2782;52.362;10.012;2023-04-03T00:49:44;18.00;78.30
5520;DHT22;2782;52.362;10.012;2023-04-03T00:50:46;18.00;78.30
5520;DHT22;2782;52.362;10.012;2023-04-03T00:51:48;18.00;78.30
5520;DHT22;2782;52.362;10.012;2023-04-03T00:52:49;17.90;78.40
5520;DHT22;2782;52.362;10.012;2023-04-03T00:53:54;18.00;78.60
5520;DHT22;2782;52.362;10.012;2023-04-03T00:55:00;18.00;78.60
5520;DHT22;2782;52.362;10.012;2023-04-03T00:56:01;18.00;78.60
5520;DHT22;2782;52.362;10.012;2023-04-03T00:57:06;18.00;79.10
5520;DHT22;2782;52.362;10.012;2023-04-03T00:58:07;17.90;78.20
5520;DHT22;2782;52.362;10.012;2023-04-03T00:59:11;17.90;78.30
5520;DHT22;2782;52.362;10.012;2023-04-03T01:00:15;18.00;78.60
5520;DHT22;2782;52.362;10.012;2023-04-03T01:01:21;17.90;78.10
5520;DHT22;2782;52.362;10.012;2023-04-03T01:02:24;17.90;79.00
5520;DHT22;2782;52.362;10.012;2023-04-03T01:03:26;17.90;78.30
5520;DHT22;2782;52.362;10.012;2023-04-03T01:04:28;17.90;78.70
5520;DHT22;2782;52.362;10.012;2023-04-03T01:05:31;17.90;78.40
5520;DHT22;2782;52.362;10.012;2023-04-03T01:06:34;17.90;78.50
5520;DHT22;2782;52.362;10.012;2023-04-03T01:07:36;17.90;78.80
5520;DHT22;2782;52.362;10.012;2023-04-03T01:08:38;17.90;78.80
5520;DHT22;2782;52.362;10.012;2023-04-03T01:09:40;17.90;78.60
5520;DHT22;2782;52.362;10.012;2023-04-03T01:10:42;17.90;78.70
5520;DHT22;2782;52.362;10.012;2023-04-03T01:11:43;18.00;79.00
5520;DHT22;2782;52.362;10.012;2023-04-03T01:12:46;17.90;78.60
5520;DHT22;2782;52.362;10.012;2023-04-03T01:13:49;17.90;78.70
5520;DHT22;2782;52.362;10.012;2023-04-03T01:14:51;17.90;78.70
5520;DHT22;2782;52.362;10.012;2023-04-03T01:15:53;17.90;78.60
5520;DHT22;2782;52.362;10.012;2023-04-03T01:16:54;17.90;78.80
5520;DHT22;2782;52.362;10.012;2023-04-03T01:17:58;17.90;78.70
5520;DHT22;2782;52.362;10.012;2023-04-03T01:19:00;17.90;78.70
5520;DHT22;2782;52.362;10.012;2023-04-03T01:20:36;17.90;78.70
5520;DHT22;2782;52.362;10.012;2023-04-03T01:21:53;17.90;78.60
5520;DHT22;2782;52.362;10.012;2023-04-03T01:23:05;17.90;79.10
5520;DHT22;2782;52.362;10.012;2023-04-03T01:24:15;17.90;79.10
5520;DHT22;2782;52.362;10.012;2023-04-03T01:25:21;17.90;78.80
5520;DHT22;2782;52.362;10.012;2023-04-03T01:26:22;17.90;78.90
5520;DHT22;2782;52.362;10.012;2023-04-03T01:27:24;17.80;78.80
5520;DHT22;2782;52.362;10.012;2023-04-03T01:28:27;17.80;78.80
5520;DHT22;2782;52.362;10.012;2023-04-03T01:29:29;17.80;78.40
5520;DHT22;2782;52.362;10.012;2023-04-03T01:30:32;17.80;78.40
5520;DHT22;2782;52.362;10.012;2023-04-03T01:31:46;17.80;78.70
5520;DHT22;2782;52.362;10.012;2023-04-03T01:32:47;17.90;78.50
5520;DHT22;2782;52.362;10.012;2023-04-03T01:33:49;17.90;78.60
5520;DHT22;2782;52.362;10.012;2023-04-03T01:34:50;17.80;78.50
5520;DHT22;2782;52.362;10.012;2023-04-03T01:35:51;17.80;78.30
5520;DHT22;2782;52.362;10.012;2023-04-03T01:36:52;17.80;78.30
5520;DHT22;2782;52.362;10.012;2023-04-03T01:37:54;17.80;78.40
5520;DHT22;2782;52.362;10.012;2023-04-03T01:38:56;17.80;78.10
5520;DHT22;2782;52.362;10.012;2023-04-03T01:39:58;17.80;78.20
5520;DHT22;2782;52.362;10.012;2023-04-03T01:40:59;17.80;78.40
5520;DHT22;2782;52.362;10.012;2023-04-03T01:42:00;17.80;78.30
5520;DHT22;2782;52.362;10.012;2023-04-03T01:43:01;17.80;78.00
5520;DHT22;2782;52.362;10.012;2023-04-03T01:44:03;17.80;77.80
5520;DHT22;2782;52.362;10.012;2023-04-03T01:45:05;17.80;77.80
5520;DHT22;2782;52.362;10.012;2023-04-03T01:46:06;17.80;77.80
5520;DHT22;2782;52.362;10.012;2023-04-03T01:47:09;17.80;77.90
5520;DHT22;2782;52.362;10.012;2023-04-03T01:48:11;17.80;77.70
5520;DHT22;2782;52.362;10.012;2023-04-03T01:49:11;17.80;77.70
5520;DHT22;2782;52.362;10.012;2023-04-03T01:50:13;17.80;77.70
5520;DHT22;2782;52.362;10.012;2023-04-03T01:51:14;17.80;77.50
5520;DHT22;2782;52.362;10.012;2023-04-03T01:52:16;17.80;77.60
5520;DHT22;2782;52.362;10.012;2023-04-03T01:53:17;17.80;77.50
5520;DHT22;2782;52.362;10.012;2023-04-03T01:54:18;17.80;77.50
5520;DHT22;2782;52.362;10.012;2023-04-03T01:55:19;17.80;77.40
5520;DHT22;2782;52.362;10.012;2023-04-03T01:56:20;17.80;77.30
5520;DHT22;2782;52.362;10.012;2023-04-03T01:57:21;17.80;77.10
5520;DHT22;2782;52.362;10.012;2023-04-03T01:58:23;17.70;77.00
5520;DHT22;2782;52.362;10.012;2023-04-03T01:59:23;17.80;77.20
5520;DHT22;2782;52.362;10.012;2023-04-03T02:00:25;17.70;77.00
5520;DHT22;2782;52.362;10.012;2023-04-03T02:04:41;17.70;77.00
5520;DHT22;2782;52.362;10.012;2023-04-03T02:05:43;17.70;76.80
5520;DHT22;2782;52.362;10.012;2023-04-03T02:06:43;17.70;76.90
5520;DHT22;2782;52.362;10.012;2023-04-03T02:07:45;17.70;76.80
5520;DHT22;2782;52.362;10.012;2023-04-03T02:08:46;17.70;76.80
5520;DHT22;2782;52.362;10.012;2023-04-03T02:09:47;17.70;76.70
5520;DHT22;2782;52.362;10.012;2023-04-03T02:10:49;17.70;76.80
5520;DHT22;2782;52.362;10.012;2023-04-03T02:11:51;17.70;76.60
5520;DHT22;2782;52.362;10.012;2023-04-03T02:12:52;17.70;76.70
5520;DHT22;2782;52.362;10.012;2023-04-03T02:13:53;17.70;76.60
5520;DHT22;2782;52.362;10.012;2023-04-03T02:14:54;17.70;76.60
5520;DHT22;2782;52.362;10.012;2023-04-03T02:15:55;17.70;76.60
5520;DHT22;2782;52.362;10.012;2023-04-03T02:16:56;17.70;76.60
5520;DHT22;2782;52.362;10.012;2023-04-03T02:17:57;17.70;76.40
5520;DHT22;2782;52.362;10.012;2023-04-03T02:18:58;17.70;77.10
5520;DHT22;2782;52.362;10.012;2023-04-03T02:20:01;17.70;76.40
5520;DHT22;2782;52.362;10.012;2023-04-03T02:21:02;17.70;76.40
5520;DHT22;2782;52.362;10.012;2023-04-03T02:22:04;17.70;76.40
5520;DHT22;2782;52.362;10.012;2023-04-03T02:23:05;17.70;76.40
5520;DHT22;2782;52.362;10.012;2023-04-03T02:24:07;17.70;76.20
5520;DHT22;2782;52.362;10.012;2023-04-03T02:25:08;17.70;76.30
5520;DHT22;2782;52.362;10.012;2023-04-03T02:26:12;17.70;76.20
5520;DHT22;2782;52.362;10.012;2023-04-03T02:27:13;17.70;76.20
5520;DHT22;2782;52.362;10.012;2023-04-03T02:28:15;17.70;76.20
5520;DHT22;2782;52.362;10.012;2023-04-03T02:29:16;17.70;76.30
5520;DHT22;2782;52.362;10.012;2023-04-03T02:30:17;17.70;76.10
5520;DHT22;2782;52.362;10.012;2023-04-03T02:31:18;17.70;76.00
5520;DHT22;2782;52.362;10.012;2023-04-03T02:32:21;17.70;76.00
5520;DHT22;2782;52.362;10.012;2023-04-03T02:33:21;17.70;76.00
5520;DHT22;2782;52.362;10.012;2023-04-03T02:34:23;17.70;76.00
5520;DHT22;2782;52.362;10.012;2023-04-03T02:35:25;17.60;75.90
5520;DHT22;2782;52.362;10.012;2023-04-03T02:36:26;17.60;75.70
5520;DHT22;2782;52.362;10.012;2023-04-03T02:37:27;17.70;75.80
5520;DHT22;2782;52.362;10.012;2023-04-03T02:38:29;17.70;75.60
5520;DHT22;2782;52.362;10.012;2023-04-03T02:39:29;17.60;75.60
5520;DHT22;2782;52.362;10.012;2023-04-03T02:40:31;17.60;75.60
5520;DHT22;2782;52.362;10.012;2023-04-03T02:41:32;17.60;75.60
5520;DHT22;2782;52.362;10.012;2023-04-03T02:42:35;17.60;75.50
5520;DHT22;2782;52.362;10.012;2023-04-03T02:43:36;17.60;75.50
5520;DHT22;2782;52.362;10.012;2023-04-03T02:44:38;17.60;75.50
5520;DHT22;2782;52.362;10.012;2023-04-03T02:45:39;17.60;75.40
5520;DHT22;2782;52.362;10.012;2023-04-03T02:46:40;17.60;75.30
5520;DHT22;2782;52.362;10.012;2023-04-03T02:47:41;17.60;75.30
5520;DHT22;2782;52.362;10.012;2023-04-03T02:48:43;17.60;75.40
5520;DHT22;2782;52.362;10.012;2023-04-03T02:49:43;17.60;75.20
5520;DHT22;2782;52.362;10.012;2023-04-03T02:50:47;17.60;75.20
5520;DHT22;2782;52.362;10.012;2023-04-03T02:51:48;17.60;75.20
5520;DHT22;2782;52.362;10.012;2023-04-03T02:52:49;17.60;75.20
5520;DHT22;2782;52.362;10.012;2023-04-03T02:53:50;17.60;75.10
5520;DHT22;2782;52.362;10.012;2023-04-03T02:54:52;17.60;75.20
5520;DHT22;2782;52.362;10.012;2023-04-03T02:55:52;17.60;75.10
5520;DHT22;2782;52.362;10.012;2023-04-03T02:56:54;17.60;75.10
5520;DHT22;2782;52.362;10.012;2023-04-03T02:57:55;17.60;75.00
5520;DHT22;2782;52.362;10.012;2023-04-03T02:58:56;17.60;75.00
5520;DHT22;2782;52.362;10.012;2023-04-03T02:59:57;17.60;75.10
5520;DHT22;2782;52.362;10.012;2023-04-03T03:00:58;17.60;75.10
5520;DHT22;2782;52.362;10.012;2023-04-03T03:01:59;17.60;75.70
5520;DHT22;2782;52.362;10.012;2023-04-03T03:03:01;17.50;75.00
5520;DHT22;2782;52.362;10.012;2023-04-03T03:04:02;17.60;74.90
5520;DHT22;2782;52.362;10.012;2023-04-03T03:05:04;17.60;74.90
5520;DHT22;2782;52.362;10.012;2023-04-03T03:06:09;17.50;74.80
5520;DHT22;2782;52.362;10.012;2023-04-03T03:07:10;17.50;74.80
5520;DHT22;2782;52.362;10.012;2023-04-03T03:08:12;17.50;74.70
5520;DHT22;2782;52.362;10.012;2023-04-03T03:09:12;17.60;74.70
5520;DHT22;2782;52.362;10.012;2023-04-03T03:10:15;17.50;74.80
5520;DHT22;2782;52.362;10.012;2023-04-03T03:11:15;17.50;74.60
5520;DHT22;2782;52.362;10.012;2023-04-03T03:12:17;17.50;74.50
5520;DHT22;2782;52.362;10.012;2023-04-03T03:13:21;17.50;74.60
5520;DHT22;2782;52.362;10.012;2023-04-03T03:14:23;17.50;74.50
5520;DHT22;2782;52.362;10.012;2023-04-03T03:15:24;17.50;74.40
5520;DHT22;2782;52.362;10.012;2023-04-03T03:16:25;17.50;74.40
5520;DHT22;2782;52.362;10.012;2023-04-03T03:17:26;17.50;74.40
5520;DHT22;2782;52.362;10.012;2023-04-03T03:18:28;17.50;74.50
5520;DHT22;2782;52.362;10.012;2023-04-03T03:19:29;17.50;74.40
5520;DHT22;2782;52.362;10.012;2023-04-03T03:20:30;17.50;74.30
5520;DHT22;2782;52.362;10.012;2023-04-03T03:21:34;17.50;74.30
5520;DHT22;2782;52.362;10.012;2023-04-03T03:22:36;17.50;74.30
5520;DHT22;2782;52.362;10.012;2023-04-03T03:23:37;17.50;74.20
5520;DHT22;2782;52.362;10.012;2023-04-03T03:24:38;17.50;74.20
5520;DHT22;2782;52.362;10.012;2023-04-03T03:25:39;17.50;74.10
5520;DHT22;2782;52.362;10.012;2023-04-03T03:26:42;17.50;74.10
5520;DHT22;2782;52.362;10.012;2023-04-03T03:27:43;17.50;74.10
5520;DHT22;2782;52.362;10.012;2023-04-03T03:28:44;17.50;74.10
5520;DHT22;2782;52.362;10.012;2023-04-03T03:29:45;17.50;74.00
5520;DHT22;2782;52.362;10.012;2023-04-03T03:30:47;17.40;73.80
5520;DHT22;2782;52.362;10.012;2023-04-03T03:31:47;17.50;74.00
5520;DHT22;2782;52.362;10.012;2023-04-03T03:32:49;17.40;73.90
5520;DHT22;2782;52.362;10.012;2023-04-03T03:33:49;17.50;73.80
5520;DHT22;2782;52.362;10.012;2023-04-03T03:34:51;17.50;73.90
5520;DHT22;2782;52.362;10.012;2023-04-03T03:35:52;17.50;73.80
5520;DHT22;2782;52.362;10.012;2023-04-03T03:36:55;17.40;73.80
5520;DHT22;2782;52.362;10.012;2023-04-03T03:37:57;17.40;73.70
5520;DHT22;2782;52.362;10.012;2023-04-03T03:38:57;17.50;73.80
5520;DHT22;2782;52.362;10.012;2023-04-03T03:39:59;17.50;73.80
5520;DHT22;2782;52.362;10.012;2023-04-03T03:41:00;17.50;73.80
5520;DHT22;2782;52.362;10.012;2023-04-03T03:42:01;17.50;73.70
5520;DHT22;2782;52.362;10.012;2023-04-03T03:43:02;17.40;73.70
5520;DHT22;2782;52.362;10.012;2023-04-03T03:44:04;17.40;73.60
5520;DHT22;2782;52.362;10.012;2023-04-03T03:45:06;17.50;73.60
5520;DHT22;2782;52.362;10.012;2023-04-03T03:46:08;17.40;73.50
5520;DHT22;2782;52.362;10.012;2023-04-03T03:47:08;17.40;73.50
5520;DHT22;2782;52.362;10.012;2023-04-03T03:48:11;17.40;73.50
5520;DHT22;2782;52.362;10.012;2023-04-03T03:49:12;17.40;73.40
5520;DHT22;2782;52.362;10.012;2023-04-03T03:50:13;17.40;73.30
5520;DHT22;2782;52.362;10.012;2023-04-03T03:51:14;17.40;73.10
5520;DHT22;2782;52.362;10.012;2023-04-03T03:52:18;17.40;73.20
5520;DHT22;2782;52.362;10.012;2023-04-03T03:53:18;17.40;73.20
5520;DHT22;2782;52.362;10.012;2023-04-03T03:54:20;17.40;73.10
5520;DHT22;2782;52.362;10.012;2023-04-03T03:55:21;17.40;73.00
5520;DHT22;2782;52.362;10.012;2023-04-03T03:56:22;17.40;73.10
5520;DHT22;2782;52.362;10.012;2023-04-03T03:57:23;17.40;73.00
5520;DHT22;2782;52.362;10.012;2023-04-03T03:58:27;17.40;72.90
5520;DHT22;2782;52.362;10.012;2023-04-03T03:59:27;17.40;72.70
5520;DHT22;2782;52.362;10.012;2023-04-03T04:00:29;17.50;72.80
5520;DHT22;2782;52.362;10.012;2023-04-03T04:01:30;17.50;72.70
5520;DHT22;2782;52.362;10.012;2023-04-03T04:02:32;17.50;72.60
5520;DHT22;2782;52.362;10.012;2023-04-03T04:03:33;17.50;72.50
5520;DHT22;2782;52.362;10.012;2023-04-03T04:04:34;17.50;72.50
5520;DHT22;2782;52.362;10.012;2023-04-03T04:05:35;17.50;72.30
5520;DHT22;2782;52.362;10.012;2023-04-03T04:06:37;17.60;72.40
5520;DHT22;2782;52.362;10.012;2023-04-03T04:07:39;17.60;72.40
5520;DHT22;2782;52.362;10.012;2023-04-03T04:08:40;17.60;72.40
5520;DHT22;2782;52.362;10.012;2023-04-03T04:09:41;17.60;72.40
5520;DHT22;2782;52.362;10.012;2023-04-03T04:10:42;17.60;72.40
5520;DHT22;2782;52.362;10.012;2023-04-03T04:11:43;17.60;72.40
5520;DHT22;2782;52.362;10.012;2023-04-03T04:12:45;17.70;72.60
5520;DHT22;2782;52.362;10.012;2023-04-03T04:13:46;17.70;72.60
5520;DHT22;2782;52.362;10.012;2023-04-03T04:14:47;17.70;72.60
5520;DHT22;2782;52.362;10.012;2023-04-03T04:15:48;17.70;72.50
5520;DHT22;2782;52.362;10.012;2023-04-03T04:16:49;17.70;72.60
5520;DHT22;2782;52.362;10.012;2023-04-03T04:17:50;17.70;72.60
5520;DHT22;2782;52.362;10.012;2023-04-03T04:18:52;17.80;72.60
5520;DHT22;2782;52.362;10.012;2023-04-03T04:19:53;17.80;72.70
5520;DHT22;2782;52.362;10.012;2023-04-03T04:20:54;17.80;72.60
5520;DHT22;2782;52.362;10.012;2023-04-03T04:21:55;17.90;72.80
5520;DHT22;2782;52.362;10.012;2023-04-03T04:22:57;17.80;72.60
5520;DHT22;2782;52.362;10.012;2023-04-03T04:23:59;17.90;72.70
5520;DHT22;2782;52.362;10.012;2023-04-03T04:24:59;17.90;72.70
5520;DHT22;2782;52.362;10.012;2023-04-03T04:26:02;17.90;72.60
5520;DHT22;2782;52.362;10.012;2023-04-03T04:27:02;17.90;72.60
5520;DHT22;2782;52.362;10.012;2023-04-03T04:28:04;17.90;72.60
5520;DHT22;2782;52.362;10.012;2023-04-03T04:29:05;18.00;72.70
5520;DHT22;2782;52.362;10.012;2023-04-03T04:30:07;18.00;72.70
5520;DHT22;2782;52.362;10.012;2023-04-03T04:31:08;18.00;72.70
5520;DHT22;2782;52.362;10.012;2023-04-03T04:32:10;18.00;72.60
5520;DHT22;2782;52.362;10.012;2023-04-03T04:33:11;18.00;72.60
5520;DHT22;2782;52.362;10.012;2023-04-03T04:34:14;18.00;72.60
5520;DHT22;2782;52.362;10.012;2023-04-03T04:35:16;18.10;73.40
5520;DHT22;2782;52.362;10.012;2023-04-03T04:36:17;18.10;72.70
5520;DHT22;2782;52.362;10.012;2023-04-03T04:37:18;18.10;72.60
5520;DHT22;2782;52.362;10.012;2023-04-03T04:38:21;18.10;72.50
5520;DHT22;2782;52.362;10.012;2023-04-03T04:39:22;18.10;72.50
5520;DHT22;2782;52.362;10.012;2023-04-03T04:40:23;18.10;72.50
5520;DHT22;2782;52.362;10.012;2023-04-03T04:41:24;18.10;72.50
5520;DHT22;2782;52.362;10.012;2023-04-03T04:42:27;18.10;72.50
5520;DHT22;2782;52.362;10.012;2023-04-03T04:43:28;18.20;72.60
5520;DHT22;2782;52.362;10.012;2023-04-03T04:44:30;18.20;72.50
5520;DHT22;2782;52.362;10.012;2023-04-03T04:45:30;18.20;72.50
5520;DHT22;2782;52.362;10.012;2023-04-03T04:46:32;18.20;72.40
5520;DHT22;2782;52.362;10.012;2023-04-03T04:47:32;18.20;72.40
5520;DHT22;2782;52.362;10.012;2023-04-03T04:48:34;18.20;72.40
5520;DHT22;2782;52.362;10.012;2023-04-03T04:49:35;18.20;72.30
5520;DHT22;2782;52.362;10.012;2023-04-03T04:50:37;18.20;72.30
5520;DHT22;2782;52.362;10.012;2023-04-03T04:51:37;18.20;72.20
5520;DHT22;2782;52.362;10.012;2023-04-03T04:52:39;18.30;72.30
5520;DHT22;2782;52.362;10.012;2023-04-03T04:53:41;18.30;72.30
5520;DHT22;2782;52.362;10.012;2023-04-03T04:54:43;18.30;72.20
5520;DHT22;2782;52.362;10.012;2023-04-03T04:55:44;18.30;72.10
5520;DHT22;2782;52.362;10.012;2023-04-03T04:56:45;18.30;72.00
5520;DHT22;2782;52.362;10.012;2023-04-03T04:57:46;18.30;72.00
5520;DHT22;2782;52.362;10.012;2023-04-03T04:58:48;18.30;72.00
5520;DHT22;2782;52.362;10.012;2023-04-03T04:59:51;18.30;72.00
5520;DHT22;2782;52.362;10.012;2023-04-03T05:00:58;18.30;71.90
5520;DHT22;2782;52.362;10.012;2023-04-03T05:01:59;18.30;71.80
5520;DHT22;2782;52.362;10.012;2023-04-03T05:03:01;18.40;71.80
5520;DHT22;2782;52.362;10.012;2023-04-03T05:04:01;18.30;71.70
5520;DHT22;2782;52.362;10.012;2023-04-03T05:05:04;18.40;71.80
5520;DHT22;2782;52.362;10.012;2023-04-03T05:06:05;18.40;71.70
5520;DHT22;2782;52.362;10.012;2023-04-03T05:07:07;18.40;71.60
5520;DHT22;2782;52.362;10.012;2023-04-03T05:08:09;18.40;72.30
5520;DHT22;2782;52.362;10.012;2023-04-03T05:09:12;18.40;71.60
5520;DHT22;2782;52.362;10.012;2023-04-03T05:10:13;18.40;71.50
5520;DHT22;2782;52.362;10.012;2023-04-03T05:11:14;18.40;71.50
5520;DHT22;2782;52.362;10.012;2023-04-03T05:12:16;18.40;71.40
5520;DHT22;2782;52.362;10.012;2023-04-03T05:13:17;18.40;72.10
5520;DHT22;2782;52.362;10.012;2023-04-03T05:14:18;18.40;71.40
5520;DHT22;2782;52.362;10.012;2023-04-03T05:15:20;18.40;71.30
5520;DHT22;2782;52.362;10.012;2023-04-03T05:16:21;18.40;71.30
5520;DHT22;2782;52.362;10.012;2023-04-03T05:17:22;18.40;71.30
5520;DHT22;2782;52.362;10.012;2023-04-03T05:18:24;18.40;71.10
5520;DHT22;2782;52.362;10.012;2023-04-03T05:19:24;18.40;71.10
5520;DHT22;2782;52.362;10.012;2023-04-03T05:20:26;18.40;71.10
5520;DHT22;2782;52.362;10.012;2023-04-03T05:21:27;18.40;71.10
5520;DHT22;2782;52.362;10.012;2023-04-03T05:22:32;18.40;71.10
5520;DHT22;2782;52.362;10.012;2023-04-03T05:23:34;18.40;71.10
5520;DHT22;2782;52.362;10.012;2023-04-03T05:24:36;18.40;71.10
5520;DHT22;2782;52.362;10.012;2023-04-03T05:25:37;18.40;71.10
5520;DHT22;2782;52.362;10.012;2023-04-03T05:26:38;18.40;71.10
5520;DHT22;2782;52.362;10.012;2023-04-03T05:27:39;18.40;71.20
5520;DHT22;2782;52.362;10.012;2023-04-03T05:28:40;18.40;71.20
5520;DHT22;2782;52.362;10.012;2023-04-03T05:29:42;18.40;71.10
5520;DHT22;2782;52.362;10.012;2023-04-03T05:30:44;18.40;71.10
5520;DHT22;2782;52.362;10.012;2023-04-03T05:31:45;18.40;71.10
5520;DHT22;2782;52.362;10.012;2023-04-03T05:32:46;18.40;71.10
5520;DHT22;2782;52.362;10.012;2023-04-03T05:33:48;18.40;71.10
5520;DHT22;2782;52.362;10.012;2023-04-03T05:34:50;18.40;71.10
5520;DHT22;2782;52.362;10.012;2023-04-03T05:35:52;18.40;71.10
5520;DHT22;2782;52.362;10.012;2023-04-03T05:36:53;18.40;71.10
5520;DHT22;2782;52.362;10.012;2023-04-03T05:37:54;18.40;71.10
5520;DHT22;2782;52.362;10.012;2023-04-03T05:38:56;18.40;71.10
5520;DHT22;2782;52.362;10.012;2023-04-03T05:39:59;18.50;71.20
5520;DHT22;2782;52.362;10.012;2023-04-03T05:41:00;18.40;71.10
5520;DHT22;2782;52.362;10.012;2023-04-03T05:42:01;18.50;71.10
5520;DHT22;2782;52.362;10.012;2023-04-03T05:43:02;18.50;71.10
5520;DHT22;2782;52.362;10.012;2023-04-03T05:44:03;18.50;71.10
5520;DHT22;2782;52.362;10.012;2023-04-03T05:45:05;18.50;71.10
5520;DHT22;2782;52.362;10.012;2023-04-03T05:46:09;18.50;71.10
5520;DHT22;2782;52.362;10.012;2023-04-03T05:47:10;18.50;71.10
5520;DHT22;2782;52.362;10.012;2023-04-03T05:48:12;18.50;71.10
5520;DHT22;2782;52.362;10.012;2023-04-03T05:49:13;18.50;71.10
5520;DHT22;2782;52.362;10.012;2023-04-03T05:50:15;18.50;71.10
5520;DHT22;2782;52.362;10.012;2023-04-03T05:51:17;18.50;71.00
5520;DHT22;2782;52.362;10.012;2023-04-03T05:52:22;18.50;71.00
5520;DHT22;2782;52.362;10.012;2023-04-03T05:53:27;18.50;71.00
5520;DHT22;2782;52.362;10.012;2023-04-03T05:54:30;18.50;71.00
5520;DHT22;2782;52.362;10.012;2023-04-03T05:55:33;18.50;71.00
5520;DHT22;2782;52.362;10.012;2023-04-03T05:56:33;18.60;71.10
5520;DHT22;2782;52.362;10.012;2023-04-03T05:57:35;18.60;71.10
5520;DHT22;2782;52.362;10.012;2023-04-03T05:58:36;18.60;71.00
5520;DHT22;2782;52.362;10.012;2023-04-03T05:59:37;18.60;71.00
5520;DHT22;2782;52.362;10.012;2023-04-03T06:00:38;18.60;71.00
5520;DHT22;2782;52.362;10.012;2023-04-03T06:01:40;18.60;71.00
5520;DHT22;2782;52.362;10.012;2023-04-03T06:02:42;18.60;70.90
5520;DHT22;2782;52.362;10.012;2023-04-03T06:03:43;18.60;70.90
5520;DHT22;2782;52.362;10.012;2023-04-03T06:04:45;18.60;70.80
5520;DHT22;2782;52.362;10.012;2023-04-03T06:05:46;18.60;70.80
5520;DHT22;2782;52.362;10.012;2023-04-03T06:06:49;18.60;70.80
5520;DHT22;2782;52.362;10.012;2023-04-03T06:07:51;18.60;70.80
5520;DHT22;2782;52.362;10.012;2023-04-03T06:08:53;18.60;67.20
5520;DHT22;2782;52.362;10.012;2023-04-03T06:09:55;18.50;63.30
5520;DHT22;2782;52.362;10.012;2023-04-03T06:10:58;18.50;60.50
5520;DHT22;2782;52.362;10.012;2023-04-03T06:11:59;18.40;60.50
5520;DHT22;2782;52.362;10.012;2023-04-03T06:13:01;18.40;62.90
5520;DHT22;2782;52.362;10.012;2023-04-03T06:14:02;18.40;63.70
5520;DHT22;2782;52.362;10.012;2023-04-03T06:15:05;18.40;68.00
5520;DHT22;2782;52.362;10.012;2023-04-03T06:16:09;18.40;68.30
5520;DHT22;2782;52.362;10.012;2023-04-03T06:17:10;18.40;68.80
5520;DHT22;2782;52.362;10.012;2023-04-03T06:18:12;18.30;66.90
5520;DHT22;2782;52.362;10.012;2023-04-03T06:19:14;18.30;66.80
5520;DHT22;2782;52.362;10.012;2023-04-03T06:20:15;18.40;67.50
5520;DHT22;2782;52.362;10.012;2023-04-03T06:21:16;18.40;67.80
5520;DHT22;2782;52.362;10.012;2023-04-03T06:22:18;18.40;67.70
5520;DHT22;2782;52.362;10.012;2023-04-03T06:23:18;18.30;68.20
5520;DHT22;2782;52.362;10.012;2023-04-03T06:24:20;18.30;69.40
5520;DHT22;2782;52.362;10.012;2023-04-03T06:25:23;18.30;69.70
5520;DHT22;2782;52.362;10.012;2023-04-03T06:26:26;18.40;69.60
5520;DHT22;2782;52.362;10.012;2023-04-03T06:27:27;18.40;69.20
5520;DHT22;2782;52.362;10.012;2023-04-03T06:28:29;18.30;68.20
5520;DHT22;2782;52.362;10.012;2023-04-03T06:29:30;18.30;68.60
5520;DHT22;2782;52.362;10.012;2023-04-03T06:30:32;18.30;66.80
5520;DHT22;2782;52.362;10.012;2023-04-03T06:31:32;18.30;67.50
5520;DHT22;2782;52.362;10.012;2023-04-03T06:32:34;18.30;68.30
5520;DHT22;2782;52.362;10.012;2023-04-03T06:33:35;18.30;66.30
5520;DHT22;2782;52.362;10.012;2023-04-03T06:34:36;18.30;67.60
5520;DHT22;2782;52.362;10.012;2023-04-03T06:35:37;18.30;68.10
5520;DHT22;2782;52.362;10.012;2023-04-03T06:36:39;18.30;68.90
5520;DHT22;2782;52.362;10.012;2023-04-03T06:37:40;18.30;68.20
5520;DHT22;2782;52.362;10.012;2023-04-03T06:38:42;18.30;67.80
5520;DHT22;2782;52.362;10.012;2023-04-03T06:39:42;18.30;66.20